KIMT/IMT METAR and TAF weather

Enter ICAO airport designator
Station Type Date Time Source
KIMT METAR 2020/07/12 17:54 UTC NOAA

KIMT 121754Z AUTO 01012KT 10SM FEW046 SCT060 24/12 A2992 RMK AO2 SLP128 T02390117 10239 20150 58012


Station Type Date Time Source
KIMT Decoded METAR 2020/07/12 17:54 UTC NOAA

IRON MOUNTAIN FORD AIRPORT, MI, United States (KIMT) 45-49N 88-07W 349M
Jul 12, 2020 - 01:54 PM EDT / 2020.07.12 1754 UTC
Wind: from the N (010 degrees) at 14 MPH (12 KT):0
Visibility: 10 mile(s):0
Sky conditions: partly cloudy
Temperature: 75.0 F (23.9 C)
Dew Point: 53.1 F (11.7 C)
Relative Humidity: 46%
Pressure (altimeter): 29.92 in. Hg (1013 hPa)
Pressure tendency: 0.04 inches (1.2 hPa) lower than three hours ago
ob: KIMT 121754Z AUTO 01012KT 10SM FEW046 SCT060 24/12 A2992 RMK AO2 SLP128 T02390117 10239 20150 58012
cycle: 18

Station Type Date Time Source
KIMT TAF UTC NOAA

Error!

Example: see airport list